Aeroporto :
LOGIN :

Iscrizione | Disclaimer

   EN    FR    IT 

 










Sommario :    VFR   VFR Marginale   IFR   IFR Intensivo   IFR Molto Intensivo
Visibilità : 
Base nubi : 
>= 8 km
>= 3000ft
5 / 8 km
1000 / 3000 ft
1500m / 5 km
500 / 1000 ft
800 / 1500m
200 / 500 ft
< 800m
< 200 ft
Simboli :   Temporali  Nebbia  Neve Forte  Precipitazioni Forti  Vento > 20 kt
SIGMETs :   Varie  Temporali  Ghiacco  Turbolenza  Onda orograficha  Ceneri Vulcaniche






- Altitudine del aeroporto : 474 ft
- Codice IATA : HFS


ESOH - Hagfors

ULTIMO METAR :
  • 271320Z AUTO 32010KT 290V360 9999 FEW046/// BKN074/// BKN086/// 14/06 Q1026

METARs OBSOLETI :
  • 271250Z AUTO 35010KT 300V020 9999 FEW047/// BKN084/// 15/05 Q1026
  • 271220Z AUTO 01011KT 330V030 9999 FEW043/// OVC088/// 15/06 Q1026
  • 271150Z AUTO 02007KT 350V050 9999 SCT044/// BKN170/// 15/06 Q1025
  • 271120Z AUTO 01009KT 300V050 9999 SCT047/// BKN120/// 15/06 Q1025
  • 271050Z AUTO 01012KT 9999 FEW040/// BKN080/// OVC130/// 14/06 Q1026

TAF N/A



MetMap, La meteo Aeronautica in un colpo d'occhio ! - Copyright ORBIFLY Dicembre 2007 - Disclaimer

ORBIFLY MET'MAP TEAM :

Programmazione e sviluppo : Alexandra Zaïnal
Concezione : Baudouin d'Aumeries
Aiuto per la programmazione : Marc-Olivier Méhu
Supporto tecnico e logistico : Manuel Goepfert
Aiuto per la traduzione : Arnaldo La Scala

Contatto : metmap@orbifly.com




FONTI E CREDITI :

   NOAA